Main page
METAR-TAF:

Airports :

Rovaniemi, Finland

Rovaniemi Airport

latitude: 66-34N, longitude: 025-50E, elevation: 197 m

Current weather observation

The report was made 30 minutes ago, at 21:20 UTC
Wind 5 kt from the South/Southwest
Temperature 7°C
Humidity 57%
Pressure 1021 hPa
Visibility 10 km or more
no clouds below 1500 m and no cumulonimbus

METAR: EFRO 052120Z AUTO 21005KT CAVOK 07/M01 Q1021

Time: 00:50 (21:50 UTC)

Forecast

The report was made 1 hour and 26 minutes ago, at 20:24 UTC
Forecast valid from 05 at 21 UTC to 06 at 21 UTC
Wind 5 kt from the West
Visibility 10 km or more
no clouds below 1500 m and no cumulonimbus
Temporary
from 06 at 08 UTC to 06 at 14 UTC
Wind 10 kt from the South

TAF: EFRO 052024Z 0521/0621 26005KT CAVOK TEMPO 0608/0614 18010KT

METAR-TAF

Weather observations and forecasts of more than 4000 airports (METAR and TAF reports).

The available stations are represented by yellow and red dots on the map.

Hover mouse over dot to see the name of the station.

Then click to see weather observations and forecasts.

To change the map : click on the green buttons with a black cross to zoom in, on the green button with a dash to zoom out, or on the green arrows for adjacent maps.


METAR-TAF: